Time,TemperatureF,DewpointF,PressureIn,WindDirection,WindDirectionDegrees,WindSpeedMPH,WindSpeedGustMPH,Humidity,HourlyPrecipIn,Conditions,Clouds,dailyrainin,SoftwareType,DateUTC
2013-03-03 00:01:00,55.0,16.0,30.16,SW,215,11.0,13.0,21,0.00,,,0.00,,2013-03-03 07:01:00,
2013-03-03 00:11:00,55.0,16.0,30.16,SW,215,11.0,13.0,21,0.00,,,0.00,,2013-03-03 07:11:00,
2013-03-03 00:21:00,55.0,16.0,30.15,SW,217,13.0,15.0,21,0.00,,,0.00,,2013-03-03 07:21:00,
2013-03-03 00:31:00,55.0,16.0,30.15,SW,217,14.0,15.0,21,0.00,,,0.00,,2013-03-03 07:31:00,
2013-03-03 00:42:00,55.0,16.0,30.15,SW,217,14.0,15.0,21,0.00,,,0.00,,2013-03-03 07:42:00,
2013-03-03 00:51:00,55.0,16.0,30.15,SW,220,13.0,15.0,21,0.00,,,0.00,,2013-03-03 07:51:00,
2013-03-03 01:01:00,54.0,15.0,30.15,SW,223,12.0,13.0,21,0.00,,,0.00,,2013-03-03 08:01:00,
2013-03-03 01:11:00,54.0,15.0,30.15,SW,223,12.0,13.0,21,0.00,,,0.00,,2013-03-03 08:11:00,
2013-03-03 01:21:00,54.0,16.0,30.15,SSW,213,10.0,13.0,22,0.00,,,0.00,,2013-03-03 08:21:00,
2013-03-03 01:31:00,54.0,16.0,30.15,SW,219,12.0,13.0,22,0.00,,,0.00,,2013-03-03 08:31:00,
2013-03-03 01:41:00,54.0,16.0,30.15,SW,219,12.0,13.0,22,0.00,,,0.00,,2013-03-03 08:41:00,
2013-03-03 01:53:00,54.0,16.0,30.14,SSW,204,11.0,13.0,22,0.00,,,0.00,,2013-03-03 08:53:00,
2013-03-03 02:01:00,54.0,15.0,30.14,SW,219,10.0,12.0,21,0.00,,,0.00,,2013-03-03 09:01:00,
2013-03-03 02:11:00,54.0,15.0,30.14,SW,219,10.0,12.0,21,0.00,,,0.00,,2013-03-03 09:11:00,
2013-03-03 02:21:00,54.0,15.0,30.13,SSW,198,11.0,13.0,21,0.00,,,0.00,,2013-03-03 09:21:00,
2013-03-03 02:32:00,54.0,16.0,30.12,SSW,202,10.0,13.0,22,0.00,,,0.00,,2013-03-03 09:32:00,
2013-03-03 02:41:00,54.0,16.0,30.12,SSW,202,10.0,13.0,22,0.00,,,0.00,,2013-03-03 09:41:00,
2013-03-03 02:51:00,54.0,16.0,30.11,SSW,198,10.0,12.0,22,0.00,,,0.00,,2013-03-03 09:51:00,
2013-03-03 03:01:00,53.0,15.0,30.11,SSW,192,11.0,13.0,22,0.00,,,0.00,,2013-03-03 10:01:00,
2013-03-03 03:11:00,53.0,15.0,30.11,SSW,192,11.0,13.0,22,0.00,,,0.00,,2013-03-03 10:11:00,
2013-03-03 03:21:00,54.0,15.0,30.09,SSW,198,10.0,13.0,21,0.00,,,0.00,,2013-03-03 10:21:00,
2013-03-03 03:32:00,54.0,15.0,30.09,SSW,207,9.0,11.0,21,0.00,,,0.00,,2013-03-03 10:32:00,
2013-03-03 03:42:00,54.0,15.0,30.09,SSW,207,9.0,11.0,21,0.00,,,0.00,,2013-03-03 10:42:00,
2013-03-03 03:52:00,53.0,15.0,30.09,SW,225,10.0,12.0,22,0.00,,,0.00,,2013-03-03 10:52:00,
2013-03-03 04:01:00,53.0,15.0,30.09,SW,227,9.0,11.0,22,0.00,,,0.00,,2013-03-03 11:01:00,
2013-03-03 04:11:00,53.0,15.0,30.09,SW,227,9.0,11.0,22,0.00,,,0.00,,2013-03-03 11:11:00,
2013-03-03 04:21:00,53.0,14.0,30.08,SW,220,10.0,11.0,21,0.00,,,0.00,,2013-03-03 11:21:00,
2013-03-03 04:32:00,53.0,14.0,30.08,SSW,213,11.0,13.0,21,0.00,,,0.00,,2013-03-03 11:32:00,
2013-03-03 04:42:00,53.0,14.0,30.08,SSW,213,11.0,13.0,21,0.00,,,0.00,,2013-03-03 11:42:00,
2013-03-03 04:52:00,53.0,14.0,30.08,SSW,213,11.0,13.0,21,0.00,,,0.00,,2013-03-03 11:52:00,
2013-03-03 05:01:00,53.0,15.0,30.07,SW,215,12.0,14.0,22,0.00,,,0.00,,2013-03-03 12:01:00,
2013-03-03 05:11:00,53.0,15.0,30.07,SW,215,12.0,14.0,22,0.00,,,0.00,,2013-03-03 12:11:00,
2013-03-03 05:21:00,52.0,14.0,30.07,SSW,206,10.0,12.0,22,0.00,,,0.00,,2013-03-03 12:21:00,
2013-03-03 05:32:00,52.0,14.0,30.06,SSW,199,11.0,13.0,22,0.00,,,0.00,,2013-03-03 12:32:00,
2013-03-03 05:43:00,52.0,14.0,30.06,SSW,199,11.0,13.0,22,0.00,,,0.00,,2013-03-03 12:43:00,
2013-03-03 05:52:00,52.0,14.0,30.06,SSW,203,14.0,15.0,22,0.00,,,0.00,,2013-03-03 12:52:00,
2013-03-03 06:01:00,50.0,14.0,30.06,SSW,211,15.0,16.0,23,0.00,,,0.00,,2013-03-03 13:01:00,
2013-03-03 06:11:00,50.0,14.0,30.06,SSW,211,15.0,16.0,23,0.00,,,0.00,,2013-03-03 13:11:00,
2013-03-03 06:22:00,51.0,14.0,30.06,SSW,200,12.0,15.0,22,0.00,,,0.00,,2013-03-03 13:22:00,
2013-03-03 06:32:00,50.0,14.0,30.06,SSW,205,13.0,16.0,23,0.00,,,0.00,,2013-03-03 13:32:00,
2013-03-03 06:42:00,50.0,14.0,30.06,SSW,205,13.0,16.0,23,0.00,,,0.00,,2013-03-03 13:42:00,
2013-03-03 06:52:00,50.0,14.0,30.06,SSW,211,12.0,14.0,23,0.00,,,0.00,,2013-03-03 13:52:00,
2013-03-03 07:02:00,50.0,14.0,30.06,SW,216,10.0,12.0,23,0.00,,,0.00,,2013-03-03 14:02:00,
2013-03-03 07:11:00,50.0,14.0,30.06,SW,216,10.0,12.0,23,0.00,,,0.00,,2013-03-03 14:11:00,
2013-03-03 07:21:00,47.0,13.0,30.06,SSW,208,11.0,12.0,25,0.00,,,0.00,,2013-03-03 14:21:00,
2013-03-03 07:32:00,48.0,13.0,30.06,SSW,196,12.0,15.0,24,0.00,,,0.00,,2013-03-03 14:32:00,
2013-03-03 07:42:00,48.0,13.0,30.06,SSW,196,12.0,15.0,24,0.00,,,0.00,,2013-03-03 14:42:00,
2013-03-03 07:52:00,47.0,13.0,30.06,SSW,200,12.0,16.0,25,0.00,,,0.00,,2013-03-03 14:52:00,
2013-03-03 08:01:00,45.0,12.0,30.06,SSW,206,17.0,22.0,26,0.00,,,0.00,,2013-03-03 15:01:00,
2013-03-03 08:11:00,45.0,12.0,30.06,SSW,206,17.0,22.0,26,0.00,,,0.00,,2013-03-03 15:11:00,
2013-03-03 08:22:00,46.0,12.0,30.07,SSW,200,16.0,21.0,25,0.00,,,0.00,,2013-03-03 15:22:00,
2013-03-03 08:32:00,46.0,12.0,30.07,SSW,200,16.0,18.0,25,0.00,,,0.00,,2013-03-03 15:32:00,
2013-03-03 08:42:00,46.0,12.0,30.07,SSW,200,16.0,18.0,25,0.00,,,0.00,,2013-03-03 15:42:00,
2013-03-03 08:52:00,47.0,13.0,30.07,SSW,198,16.0,23.0,25,0.00,,,0.00,,2013-03-03 15:52:00,
2013-03-03 09:01:00,48.0,13.0,30.07,SW,219,15.0,19.0,24,0.00,,,0.00,,2013-03-03 16:01:00,
2013-03-03 09:12:00,48.0,13.0,30.07,SW,219,15.0,19.0,24,0.00,,,0.00,,2013-03-03 16:12:00,
2013-03-03 09:21:00,49.0,14.0,30.07,SW,223,13.0,19.0,24,0.00,,,0.00,,2013-03-03 16:21:00,
2013-03-03 09:32:00,49.0,15.0,30.07,WSW,237,13.0,17.0,25,0.00,,,0.00,,2013-03-03 16:32:00,
2013-03-03 09:42:00,49.0,15.0,30.07,WSW,237,13.0,17.0,25,0.00,,,0.00,,2013-03-03 16:42:00,
2013-03-03 09:52:00,50.0,15.0,30.07,SW,215,11.0,16.0,24,0.00,,,0.00,,2013-03-03 16:52:00,
2013-03-03 10:01:00,51.0,14.0,30.06,SW,224,13.0,17.0,22,0.00,,,0.00,,2013-03-03 17:01:00,
2013-03-03 10:11:00,53.0,13.0,30.06,SW,222,17.0,19.0,20,0.00,,,0.00,,2013-03-03 17:11:00,
2013-03-03 10:22:00,53.0,13.0,30.06,SW,222,17.0,19.0,20,0.00,,,0.00,,2013-03-03 17:22:00,
2013-03-03 10:32:00,53.0,12.0,30.04,SSW,211,16.0,17.0,19,0.00,,,0.00,,2013-03-03 17:32:00,
2013-03-03 10:42:00,53.0,12.0,30.04,SSW,211,16.0,17.0,19,0.00,,,0.00,,2013-03-03 17:42:00,
2013-03-03 10:52:00,54.0,13.0,30.05,WSW,246,15.0,20.0,19,0.00,,,0.00,,2013-03-03 17:52:00,
2013-03-03 11:01:00,55.0,14.0,30.03,SW,224,17.0,21.0,19,0.00,,,0.00,,2013-03-03 18:01:00,
2013-03-03 11:11:00,55.0,14.0,30.03,SW,224,17.0,21.0,19,0.00,,,0.00,,2013-03-03 18:11:00,
2013-03-03 11:21:00,56.0,13.0,30.03,SSW,211,14.0,21.0,18,0.00,,,0.00,,2013-03-03 18:21:00,
2013-03-03 11:32:00,56.0,13.0,30.01,SSW,212,16.0,22.0,18,0.00,,,0.00,,2013-03-03 18:32:00,
2013-03-03 11:42:00,56.0,13.0,30.01,SSW,212,16.0,22.0,18,0.00,,,0.00,,2013-03-03 18:42:00,
2013-03-03 11:52:00,59.0,14.0,30.00,SW,221,17.0,21.0,17,0.00,,,0.00,,2013-03-03 18:52:00,
2013-03-03 12:02:00,59.0,13.0,29.99,SW,224,18.0,22.0,16,0.00,,,0.00,,2013-03-03 19:02:00,
2013-03-03 12:11:00,59.0,13.0,29.99,SW,224,18.0,22.0,16,0.00,,,0.00,,2013-03-03 19:11:00,
2013-03-03 12:22:00,61.0,14.0,29.99,SW,232,15.0,21.0,16,0.00,,,0.00,,2013-03-03 19:22:00,
2013-03-03 12:32:00,63.0,15.0,29.97,SSW,200,17.0,22.0,15,0.00,,,0.00,,2013-03-03 19:32:00,
2013-03-03 12:42:00,63.0,15.0,29.97,SSW,200,17.0,22.0,15,0.00,,,0.00,,2013-03-03 19:42:00,
2013-03-03 12:52:00,65.0,13.0,29.96,SW,230,14.0,18.0,13,0.00,,,0.00,,2013-03-03 19:52:00,
2013-03-03 13:01:00,67.0,13.0,29.95,WSW,248,13.0,22.0,12,0.00,,,0.00,,2013-03-03 20:01:00,
2013-03-03 13:11:00,67.0,13.0,29.95,WSW,248,13.0,22.0,12,0.00,,,0.00,,2013-03-03 20:11:00,
2013-03-03 13:21:00,68.0,7.0,29.93,WNW,296,25.0,33.0,9,0.00,,,0.00,,2013-03-03 20:21:00,
2013-03-03 13:32:00,69.0,8.0,29.92,West,280,20.0,33.0,9,0.00,,,0.00,,2013-03-03 20:32:00,
2013-03-03 13:42:00,69.0,8.0,29.92,West,280,20.0,33.0,9,0.00,,,0.00,,2013-03-03 20:42:00,
2013-03-03 13:52:00,69.0,5.0,29.91,WNW,293,21.0,28.0,8,0.00,,,0.00,,2013-03-03 20:52:00,
2013-03-03 14:02:00,70.0,6.0,29.89,WNW,293,24.0,38.0,8,0.00,,,0.00,,2013-03-03 21:02:00,
2013-03-03 14:11:00,70.0,6.0,29.89,WNW,293,24.0,38.0,8,0.00,,,0.00,,2013-03-03 21:11:00,
2013-03-03 14:22:00,69.0,8.0,29.88,WNW,291,25.0,37.0,9,0.00,,,0.00,,2013-03-03 21:22:00,
2013-03-03 14:32:00,70.0,6.0,29.88,WNW,300,29.0,45.0,8,0.00,,,0.00,,2013-03-03 21:32:00,
2013-03-03 14:42:00,70.0,6.0,29.88,WNW,300,29.0,45.0,8,0.00,,,0.00,,2013-03-03 21:42:00,
2013-03-03 14:52:00,72.0,1.0,29.86,NW,321,34.0,44.0,6,0.00,,,0.00,,2013-03-03 21:52:00,
2013-03-03 15:01:00,71.0,4.0,29.86,NW,306,35.0,46.0,7,0.00,,,0.00,,2013-03-03 22:01:00,
2013-03-03 15:11:00,71.0,4.0,29.86,NW,306,35.0,46.0,7,0.00,,,0.00,,2013-03-03 22:11:00,
2013-03-03 15:22:00,72.0,5.0,29.86,WNW,287,32.0,44.0,7,0.00,,,0.00,,2013-03-03 22:22:00,
2013-03-03 15:32:00,73.0,-2.0,29.84,WNW,297,37.0,45.0,5,0.00,,,0.00,,2013-03-03 22:32:00,
2013-03-03 15:42:00,73.0,-2.0,29.84,WNW,297,37.0,45.0,5,0.00,,,0.00,,2013-03-03 22:42:00,
2013-03-03 15:52:00,73.0,-2.0,29.85,NW,309,36.0,46.0,5,0.00,,,0.00,,2013-03-03 22:52:00,
2013-03-03 16:01:00,72.0,-3.0,29.85,NW,304,34.0,43.0,5,0.00,,,0.00,,2013-03-03 23:01:00,
2013-03-03 16:11:00,72.0,-3.0,29.85,NW,304,34.0,43.0,5,0.00,,,0.00,,2013-03-03 23:11:00,
2013-03-03 16:21:00,73.0,-2.0,29.84,WNW,295,36.0,45.0,5,0.00,,,0.00,,2013-03-03 23:21:00,
2013-03-03 16:32:00,72.0,-3.0,29.83,NW,304,32.0,41.0,5,0.00,,,0.00,,2013-03-03 23:32:00,
2013-03-03 16:42:00,72.0,-3.0,29.83,NW,304,32.0,41.0,5,0.00,,,0.00,,2013-03-03 23:42:00,
2013-03-03 16:52:00,71.0,-3.0,29.84,NW,306,34.0,43.0,5,0.00,,,0.00,,2013-03-03 23:52:00,
2013-03-03 17:01:00,71.0,-3.0,29.84,NW,323,34.0,40.0,5,0.00,,,0.00,,2013-03-04 00:01:00,
2013-03-03 17:11:00,71.0,-3.0,29.84,NW,323,34.0,40.0,5,0.00,,,0.00,,2013-03-04 00:11:00,
2013-03-03 17:21:00,70.0,0.0,29.84,NW,311,29.0,37.0,6,0.00,,,0.00,,2013-03-04 00:21:00,
2013-03-03 17:32:00,70.0,0.0,29.84,WNW,302,32.0,39.0,6,0.00,,,0.00,,2013-03-04 00:32:00,
2013-03-03 17:42:00,70.0,0.0,29.84,WNW,302,32.0,39.0,6,0.00,,,0.00,,2013-03-04 00:42:00,
2013-03-03 17:52:00,70.0,0.0,29.84,WNW,302,32.0,39.0,6,0.00,,,0.00,,2013-03-04 00:52:00,
2013-03-03 18:01:00,69.0,2.0,29.85,WNW,294,29.0,38.0,7,0.00,,,0.00,,2013-03-04 01:01:00,
2013-03-03 18:11:00,69.0,2.0,29.85,WNW,294,29.0,38.0,7,0.00,,,0.00,,2013-03-04 01:11:00,
2013-03-03 18:21:00,69.0,5.0,29.85,WNW,301,29.0,38.0,8,0.00,,,0.00,,2013-03-04 01:21:00,
2013-03-03 18:32:00,68.0,5.0,29.85,NW,306,36.0,43.0,8,0.00,,,0.00,,2013-03-04 01:32:00,
2013-03-03 18:42:00,68.0,5.0,29.85,NW,306,36.0,43.0,8,0.00,,,0.00,,2013-03-04 01:42:00,
2013-03-03 18:51:00,68.0,5.0,29.88,NW,311,27.0,43.0,8,0.00,,,0.00,,2013-03-04 01:51:00,
2013-03-03 19:01:00,67.0,6.0,29.88,WNW,298,20.0,31.0,9,0.00,,,0.00,,2013-03-04 02:01:00,
2013-03-03 19:11:00,67.0,6.0,29.88,WNW,298,20.0,31.0,9,0.00,,,0.00,,2013-03-04 02:11:00,
2013-03-03 19:22:00,67.0,6.0,29.89,WNW,292,18.0,25.0,9,0.00,,,0.00,,2013-03-04 02:22:00,
2013-03-03 19:32:00,66.0,8.0,29.89,WNW,296,22.0,25.0,10,0.00,,,0.00,,2013-03-04 02:32:00,
2013-03-03 19:42:00,66.0,8.0,29.89,WNW,296,22.0,25.0,10,0.00,,,0.00,,2013-03-04 02:42:00,
2013-03-03 19:52:00,65.0,9.0,29.89,WNW,303,18.0,25.0,11,0.00,,,0.00,,2013-03-04 02:52:00,
2013-03-03 20:02:00,65.0,9.0,29.89,WNW,302,15.0,19.0,11,0.00,,,0.00,,2013-03-04 03:02:00,
2013-03-03 20:11:00,65.0,9.0,29.89,WNW,302,15.0,19.0,11,0.00,,,0.00,,2013-03-04 03:11:00,
2013-03-03 20:21:00,65.0,11.0,29.88,WNW,290,14.0,18.0,12,0.00,,,0.00,,2013-03-04 03:21:00,
2013-03-03 20:32:00,64.0,10.0,29.88,WNW,283,15.0,18.0,12,0.00,,,0.00,,2013-03-04 03:32:00,
2013-03-03 20:42:00,64.0,10.0,29.89,WNW,286,18.0,24.0,12,0.00,,,0.00,,2013-03-04 03:42:00,
2013-03-03 20:52:00,64.0,10.0,29.89,WNW,286,18.0,24.0,12,0.00,,,0.00,,2013-03-04 03:52:00,
2013-03-03 21:01:00,64.0,10.0,29.89,WNW,298,19.0,24.0,12,0.00,,,0.00,,2013-03-04 04:01:00,
2013-03-03 21:11:00,64.0,10.0,29.89,WNW,298,19.0,24.0,12,0.00,,,0.00,,2013-03-04 04:11:00,
2013-03-03 21:22:00,64.0,10.0,29.90,NW,306,23.0,27.0,12,0.00,,,0.00,,2013-03-04 04:22:00,
2013-03-03 21:32:00,64.0,10.0,29.91,NW,304,17.0,27.0,12,0.00,,,0.00,,2013-03-04 04:32:00,
2013-03-03 21:42:00,64.0,10.0,29.91,NW,304,17.0,27.0,12,0.00,,,0.00,,2013-03-04 04:42:00,
2013-03-03 21:51:00,63.0,10.0,29.91,West,274,14.0,18.0,12,0.00,,,0.00,,2013-03-04 04:51:00,
2013-03-03 22:01:00,63.0,10.0,29.92,WNW,295,9.0,15.0,12,0.00,,,0.00,,2013-03-04 05:01:00,
2013-03-03 22:11:00,63.0,10.0,29.92,WNW,295,9.0,15.0,12,0.00,,,0.00,,2013-03-04 05:11:00,
2013-03-03 22:22:00,63.0,10.0,29.91,NNW,332,11.0,15.0,12,0.00,,,0.00,,2013-03-04 05:22:00,
2013-03-03 22:32:00,63.0,10.0,29.91,NW,325,8.0,12.0,12,0.00,,,0.00,,2013-03-04 05:32:00,
2013-03-03 22:42:00,63.0,10.0,29.91,NW,325,8.0,12.0,12,0.00,,,0.00,,2013-03-04 05:42:00,
2013-03-03 22:52:00,63.0,10.0,29.90,NW,319,11.0,20.0,12,0.00,,,0.00,,2013-03-04 05:52:00,
2013-03-03 23:01:00,63.0,11.0,29.90,NW,317,13.0,19.0,13,0.00,,,0.00,,2013-03-04 06:01:00,
2013-03-03 23:11:00,63.0,11.0,29.90,NW,317,13.0,19.0,13,0.00,,,0.00,,2013-03-04 06:11:00,
2013-03-03 23:21:00,63.0,11.0,29.89,WNW,301,15.0,25.0,13,0.00,,,0.00,,2013-03-04 06:21:00,
2013-03-03 23:32:00,62.0,11.0,29.89,WNW,302,11.0,16.0,13,0.00,,,0.00,,2013-03-04 06:32:00,
2013-03-03 23:42:00,62.0,11.0,29.89,WNW,302,11.0,16.0,13,0.00,,,0.00,,2013-03-04 06:42:00,
2013-03-03 23:51:00,62.0,11.0,29.89,West,269,5.0,13.0,13,0.00,,,0.00,,2013-03-04 06:51:00,